sensor_id;sensor_type;location;lat;lon;timestamp;P1;P2;P0
80413;PMS5003;69758;52.580;13.068;2023-08-17T00:00:18;4;4;
80413;PMS5003;69758;52.580;13.068;2023-08-17T00:02:42;6;6;
80413;PMS5003;69758;52.580;13.068;2023-08-17T00:05:07;7;6;
80413;PMS5003;69758;52.580;13.068;2023-08-17T00:07:32;7;7;
80413;PMS5003;69758;52.580;13.068;2023-08-17T00:09:57;6;6;
80413;PMS5003;69758;52.580;13.068;2023-08-17T00:12:22;6;6;
80413;PMS5003;69758;52.580;13.068;2023-08-17T00:14:47;5;5;
80413;PMS5003;69758;52.580;13.068;2023-08-17T00:17:13;5;5;
80413;PMS5003;69758;52.580;13.068;2023-08-17T00:19:38;6;5;
80413;PMS5003;69758;52.580;13.068;2023-08-17T00:22:03;5;5;
80413;PMS5003;69758;52.580;13.068;2023-08-17T00:24:28;6;5;
80413;PMS5003;69758;52.580;13.068;2023-08-17T00:26:53;7;7;
80413;PMS5003;69758;52.580;13.068;2023-08-17T00:29:18;6;6;
80413;PMS5003;69758;52.580;13.068;2023-08-17T00:31:43;5;4;
80413;PMS5003;69758;52.580;13.068;2023-08-17T00:34:08;6;5;
80413;PMS5003;69758;52.580;13.068;2023-08-17T00:36:33;6;6;
80413;PMS5003;69758;52.580;13.068;2023-08-17T00:38:58;8;8;
80413;PMS5003;69758;52.580;13.068;2023-08-17T00:41:23;7;7;
80413;PMS5003;69758;52.580;13.068;2023-08-17T00:43:48;5;5;
80413;PMS5003;69758;52.580;13.068;2023-08-17T00:46:13;7;7;
80413;PMS5003;69758;52.580;13.068;2023-08-17T00:48:38;6;6;
80413;PMS5003;69758;52.580;13.068;2023-08-17T00:51:03;5;5;
80413;PMS5003;69758;52.580;13.068;2023-08-17T00:53:28;6;6;
80413;PMS5003;69758;52.580;13.068;2023-08-17T00:55:53;7;7;
80413;PMS5003;69758;52.580;13.068;2023-08-17T00:58:19;7;7;
80413;PMS5003;69758;52.580;13.068;2023-08-17T01:00:44;7;7;
80413;PMS5003;69758;52.580;13.068;2023-08-17T01:03:09;7;6;
80413;PMS5003;69758;52.580;13.068;2023-08-17T01:05:34;6;6;
80413;PMS5003;69758;52.580;13.068;2023-08-17T01:07:59;6;6;
80413;PMS5003;69758;52.580;13.068;2023-08-17T01:10:24;8;7;
80413;PMS5003;69758;52.580;13.068;2023-08-17T01:12:51;5;5;
80413;PMS5003;69758;52.580;13.068;2023-08-17T01:15:14;8;7;
80413;PMS5003;69758;52.580;13.068;2023-08-17T01:17:39;8;8;
80413;PMS5003;69758;52.580;13.068;2023-08-17T01:20:04;6;6;
80413;PMS5003;69758;52.580;13.068;2023-08-17T01:22:29;6;6;
80413;PMS5003;69758;52.580;13.068;2023-08-17T01:24:54;6;6;
80413;PMS5003;69758;52.580;13.068;2023-08-17T01:27:19;7;7;
80413;PMS5003;69758;52.580;13.068;2023-08-17T01:29:44;5;5;
80413;PMS5003;69758;52.580;13.068;2023-08-17T01:32:10;5;5;
80413;PMS5003;69758;52.580;13.068;2023-08-17T01:34:41;7;7;
80413;PMS5003;69758;52.580;13.068;2023-08-17T01:37:00;6;6;
80413;PMS5003;69758;52.580;13.068;2023-08-17T01:39:26;6;6;
80413;PMS5003;69758;52.580;13.068;2023-08-17T01:41:49;6;6;
80413;PMS5003;69758;52.580;13.068;2023-08-17T01:44:14;7;7;
80413;PMS5003;69758;52.580;13.068;2023-08-17T01:46:39;7;7;
80413;PMS5003;69758;52.580;13.068;2023-08-17T01:49:04;6;6;
80413;PMS5003;69758;52.580;13.068;2023-08-17T01:51:29;6;6;
80413;PMS5003;69758;52.580;13.068;2023-08-17T01:53:54;5;5;
80413;PMS5003;69758;52.580;13.068;2023-08-17T01:56:20;6;6;
80413;PMS5003;69758;52.580;13.068;2023-08-17T01:58:45;5;5;
80413;PMS5003;69758;52.580;13.068;2023-08-17T02:01:10;6;6;
80413;PMS5003;69758;52.580;13.068;2023-08-17T02:03:35;6;6;
80413;PMS5003;69758;52.580;13.068;2023-08-17T02:06:00;7;6;
80413;PMS5003;69758;52.580;13.068;2023-08-17T02:08:25;8;7;
80413;PMS5003;69758;52.580;13.068;2023-08-17T02:10:50;5;5;
80413;PMS5003;69758;52.580;13.068;2023-08-17T02:13:15;7;7;
80413;PMS5003;69758;52.580;13.068;2023-08-17T02:15:40;8;7;
80413;PMS5003;69758;52.580;13.068;2023-08-17T02:18:05;6;6;
80413;PMS5003;69758;52.580;13.068;2023-08-17T02:20:30;8;7;
80413;PMS5003;69758;52.580;13.068;2023-08-17T02:22:55;4;4;
80413;PMS5003;69758;52.580;13.068;2023-08-17T02:25:20;5;5;
80413;PMS5003;69758;52.580;13.068;2023-08-17T02:27:46;10;10;
80413;PMS5003;69758;52.580;13.068;2023-08-17T02:30:12;6;6;
80413;PMS5003;69758;52.580;13.068;2023-08-17T02:32:37;6;6;
80413;PMS5003;69758;52.580;13.068;2023-08-17T02:35:01;6;6;
80413;PMS5003;69758;52.580;13.068;2023-08-17T02:37:26;6;6;
80413;PMS5003;69758;52.580;13.068;2023-08-17T02:39:52;5;5;
80413;PMS5003;69758;52.580;13.068;2023-08-17T02:42:16;7;7;
80413;PMS5003;69758;52.580;13.068;2023-08-17T02:44:41;5;5;
80413;PMS5003;69758;52.580;13.068;2023-08-17T02:47:06;7;7;
80413;PMS5003;69758;52.580;13.068;2023-08-17T02:49:32;5;5;
80413;PMS5003;69758;52.580;13.068;2023-08-17T02:51:56;5;5;
80413;PMS5003;69758;52.580;13.068;2023-08-17T02:54:22;5;5;
80413;PMS5003;69758;52.580;13.068;2023-08-17T02:56:47;5;5;
80413;PMS5003;69758;52.580;13.068;2023-08-17T02:59:12;6;6;
80413;PMS5003;69758;52.580;13.068;2023-08-17T03:01:37;5;5;
80413;PMS5003;69758;52.580;13.068;2023-08-17T03:04:02;6;6;
80413;PMS5003;69758;52.580;13.068;2023-08-17T03:06:27;5;5;
80413;PMS5003;69758;52.580;13.068;2023-08-17T03:08:52;7;6;
80413;PMS5003;69758;52.580;13.068;2023-08-17T03:11:17;6;6;
80413;PMS5003;69758;52.580;13.068;2023-08-17T03:13:42;4;4;
80413;PMS5003;69758;52.580;13.068;2023-08-17T03:16:07;3;3;
80413;PMS5003;69758;52.580;13.068;2023-08-17T03:18:32;7;7;
80413;PMS5003;69758;52.580;13.068;2023-08-17T03:20:57;4;4;
80413;PMS5003;69758;52.580;13.068;2023-08-17T03:23:22;5;5;
80413;PMS5003;69758;52.580;13.068;2023-08-17T03:25:51;4;4;
80413;PMS5003;69758;52.580;13.068;2023-08-17T03:28:12;6;6;
80413;PMS5003;69758;52.580;13.068;2023-08-17T03:30:37;4;4;
80413;PMS5003;69758;52.580;13.068;2023-08-17T03:33:03;6;6;
80413;PMS5003;69758;52.580;13.068;2023-08-17T03:35:27;6;5;
80413;PMS5003;69758;52.580;13.068;2023-08-17T03:37:52;4;4;
80413;PMS5003;69758;52.580;13.068;2023-08-17T03:40:18;5;5;
80413;PMS5003;69758;52.580;13.068;2023-08-17T03:42:43;6;6;
80413;PMS5003;69758;52.580;13.068;2023-08-17T03:45:08;4;4;
80413;PMS5003;69758;52.580;13.068;2023-08-17T03:47:33;5;5;
80413;PMS5003;69758;52.580;13.068;2023-08-17T03:49:58;5;5;
80413;PMS5003;69758;52.580;13.068;2023-08-17T03:52:23;5;5;
80413;PMS5003;69758;52.580;13.068;2023-08-17T03:54:48;6;6;
80413;PMS5003;69758;52.580;13.068;2023-08-17T03:57:13;4;4;
80413;PMS5003;69758;52.580;13.068;2023-08-17T03:59:38;4;4;
80413;PMS5003;69758;52.580;13.068;2023-08-17T04:02:03;4;4;
80413;PMS5003;69758;52.580;13.068;2023-08-17T04:04:28;5;5;
80413;PMS5003;69758;52.580;13.068;2023-08-17T04:06:53;6;6;
80413;PMS5003;69758;52.580;13.068;2023-08-17T04:09:18;4;4;
80413;PMS5003;69758;52.580;13.068;2023-08-17T04:11:44;5;5;
80413;PMS5003;69758;52.580;13.068;2023-08-17T04:14:08;4;4;
80413;PMS5003;69758;52.580;13.068;2023-08-17T04:16:34;4;4;
80413;PMS5003;69758;52.580;13.068;2023-08-17T04:18:58;3;3;
80413;PMS5003;69758;52.580;13.068;2023-08-17T04:21:23;4;4;
80413;PMS5003;69758;52.580;13.068;2023-08-17T04:23:48;5;5;
80413;PMS5003;69758;52.580;13.068;2023-08-17T04:26:14;6;6;
80413;PMS5003;69758;52.580;13.068;2023-08-17T04:28:39;6;6;
80413;PMS5003;69758;52.580;13.068;2023-08-17T04:31:04;5;5;
80413;PMS5003;69758;52.580;13.068;2023-08-17T04:33:29;4;4;
80413;PMS5003;69758;52.580;13.068;2023-08-17T04:35:54;4;3;
80413;PMS5003;69758;52.580;13.068;2023-08-17T04:38:19;6;6;
80413;PMS5003;69758;52.580;13.068;2023-08-17T04:40:44;5;5;
80413;PMS5003;69758;52.580;13.068;2023-08-17T04:43:09;4;4;
80413;PMS5003;69758;52.580;13.068;2023-08-17T04:45:34;6;5;
80413;PMS5003;69758;52.580;13.068;2023-08-17T04:47:59;5;5;
80413;PMS5003;69758;52.580;13.068;2023-08-17T04:50:24;5;5;
80413;PMS5003;69758;52.580;13.068;2023-08-17T04:52:49;4;4;
80413;PMS5003;69758;52.580;13.068;2023-08-17T04:55:14;6;5;
80413;PMS5003;69758;52.580;13.068;2023-08-17T04:57:39;4;4;
80413;PMS5003;69758;52.580;13.068;2023-08-17T05:00:05;3;3;
80413;PMS5003;69758;52.580;13.068;2023-08-17T05:02:29;4;4;
80413;PMS5003;69758;52.580;13.068;2023-08-17T05:04:55;6;5;
80413;PMS5003;69758;52.580;13.068;2023-08-17T05:07:20;5;5;
80413;PMS5003;69758;52.580;13.068;2023-08-17T05:09:45;4;4;
80413;PMS5003;69758;52.580;13.068;2023-08-17T05:12:10;5;5;
80413;PMS5003;69758;52.580;13.068;2023-08-17T05:14:35;4;4;
80413;PMS5003;69758;52.580;13.068;2023-08-17T05:17:00;5;5;
80413;PMS5003;69758;52.580;13.068;2023-08-17T05:19:25;6;6;
80413;PMS5003;69758;52.580;13.068;2023-08-17T05:21:50;6;5;
80413;PMS5003;69758;52.580;13.068;2023-08-17T05:24:15;4;4;
80413;PMS5003;69758;52.580;13.068;2023-08-17T05:26:40;5;5;
80413;PMS5003;69758;52.580;13.068;2023-08-17T05:29:05;5;5;
80413;PMS5003;69758;52.580;13.068;2023-08-17T05:31:30;5;5;
80413;PMS5003;69758;52.580;13.068;2023-08-17T05:33:55;5;5;
80413;PMS5003;69758;52.580;13.068;2023-08-17T05:36:20;4;4;
80413;PMS5003;69758;52.580;13.068;2023-08-17T05:38:45;4;4;
80413;PMS5003;69758;52.580;13.068;2023-08-17T05:41:11;5;5;
80413;PMS5003;69758;52.580;13.068;2023-08-17T05:43:36;2;2;
80413;PMS5003;69758;52.580;13.068;2023-08-17T05:46:01;2;2;
80413;PMS5003;69758;52.580;13.068;2023-08-17T05:48:26;3;3;
80413;PMS5003;69758;52.580;13.068;2023-08-17T05:50:51;4;3;
80413;PMS5003;69758;52.580;13.068;2023-08-17T05:53:16;6;5;
80413;PMS5003;69758;52.580;13.068;2023-08-17T05:55:41;4;4;
80413;PMS5003;69758;52.580;13.068;2023-08-17T05:58:06;3;3;
80413;PMS5003;69758;52.580;13.068;2023-08-17T06:00:31;3;3;
80413;PMS5003;69758;52.580;13.068;2023-08-17T06:02:56;4;4;
80413;PMS5003;69758;52.580;13.068;2023-08-17T06:05:22;4;3;
80413;PMS5003;69758;52.580;13.068;2023-08-17T06:07:46;4;4;
80413;PMS5003;69758;52.580;13.068;2023-08-17T06:10:11;4;4;
80413;PMS5003;69758;52.580;13.068;2023-08-17T06:12:37;5;4;
80413;PMS5003;69758;52.580;13.068;2023-08-17T06:15:02;4;4;
80413;PMS5003;69758;52.580;13.068;2023-08-17T06:17:26;5;5;
80413;PMS5003;69758;52.580;13.068;2023-08-17T06:19:52;41;37;
80413;PMS5003;69758;52.580;13.068;2023-08-17T06:22:17;8;7;
80413;PMS5003;69758;52.580;13.068;2023-08-17T06:24:42;4;4;
80413;PMS5003;69758;52.580;13.068;2023-08-17T06:27:07;6;6;
80413;PMS5003;69758;52.580;13.068;2023-08-17T06:29:32;4;4;
80413;PMS5003;69758;52.580;13.068;2023-08-17T06:31:57;5;5;
80413;PMS5003;69758;52.580;13.068;2023-08-17T06:34:22;6;6;
80413;PMS5003;69758;52.580;13.068;2023-08-17T06:39:12;4;4;
80413;PMS5003;69758;52.580;13.068;2023-08-17T06:41:38;9;9;
80413;PMS5003;69758;52.580;13.068;2023-08-17T06:44:04;5;5;
80413;PMS5003;69758;52.580;13.068;2023-08-17T06:46:28;3;3;
80413;PMS5003;69758;52.580;13.068;2023-08-17T06:48:53;4;4;
80413;PMS5003;69758;52.580;13.068;2023-08-17T06:51:18;6;6;
80413;PMS5003;69758;52.580;13.068;2023-08-17T06:53:44;5;5;
80413;PMS5003;69758;52.580;13.068;2023-08-17T06:56:09;5;5;
80413;PMS5003;69758;52.580;13.068;2023-08-17T06:58:33;6;5;
80413;PMS5003;69758;52.580;13.068;2023-08-17T07:00:59;5;5;
80413;PMS5003;69758;52.580;13.068;2023-08-17T07:03:24;4;4;
80413;PMS5003;69758;52.580;13.068;2023-08-17T07:05:49;14;13;
80413;PMS5003;69758;52.580;13.068;2023-08-17T07:08:14;7;6;
80413;PMS5003;69758;52.580;13.068;2023-08-17T07:10:39;3;3;
80413;PMS5003;69758;52.580;13.068;2023-08-17T07:13:04;4;4;
80413;PMS5003;69758;52.580;13.068;2023-08-17T07:15:29;6;6;
80413;PMS5003;69758;52.580;13.068;2023-08-17T07:17:54;4;4;
80413;PMS5003;69758;52.580;13.068;2023-08-17T07:20:19;7;6;
80413;PMS5003;69758;52.580;13.068;2023-08-17T07:22:44;5;5;
80413;PMS5003;69758;52.580;13.068;2023-08-17T07:25:09;7;5;
80413;PMS5003;69758;52.580;13.068;2023-08-17T07:27:34;4;4;
80413;PMS5003;69758;52.580;13.068;2023-08-17T07:29:59;3;3;
80413;PMS5003;69758;52.580;13.068;2023-08-17T07:32:24;6;6;
80413;PMS5003;69758;52.580;13.068;2023-08-17T07:34:49;6;6;
80413;PMS5003;69758;52.580;13.068;2023-08-17T07:37:14;6;5;
80413;PMS5003;69758;52.580;13.068;2023-08-17T07:39:39;7;6;
80413;PMS5003;69758;52.580;13.068;2023-08-17T07:42:04;7;7;
80413;PMS5003;69758;52.580;13.068;2023-08-17T07:44:29;4;4;
80413;PMS5003;69758;52.580;13.068;2023-08-17T07:46:54;8;7;
80413;PMS5003;69758;52.580;13.068;2023-08-17T07:49:19;7;7;
80413;PMS5003;69758;52.580;13.068;2023-08-17T07:51:44;6;6;
80413;PMS5003;69758;52.580;13.068;2023-08-17T07:54:09;6;6;
80413;PMS5003;69758;52.580;13.068;2023-08-17T07:56:35;5;5;
80413;PMS5003;69758;52.580;13.068;2023-08-17T07:59:00;8;7;
80413;PMS5003;69758;52.580;13.068;2023-08-17T08:01:25;5;5;
80413;PMS5003;69758;52.580;13.068;2023-08-17T08:03:49;5;5;
80413;PMS5003;69758;52.580;13.068;2023-08-17T08:06:15;6;6;
80413;PMS5003;69758;52.580;13.068;2023-08-17T08:08:40;6;6;
80413;PMS5003;69758;52.580;13.068;2023-08-17T08:11:05;7;6;
80413;PMS5003;69758;52.580;13.068;2023-08-17T08:13:30;6;6;
80413;PMS5003;69758;52.580;13.068;2023-08-17T08:15:55;6;6;
80413;PMS5003;69758;52.580;13.068;2023-08-17T08:18:20;6;6;
80413;PMS5003;69758;52.580;13.068;2023-08-17T08:20:45;7;7;
80413;PMS5003;69758;52.580;13.068;2023-08-17T08:23:10;8;7;
80413;PMS5003;69758;52.580;13.068;2023-08-17T08:25:35;6;6;
80413;PMS5003;69758;52.580;13.068;2023-08-17T08:28:00;6;6;
80413;PMS5003;69758;52.580;13.068;2023-08-17T08:30:25;5;5;
80413;PMS5003;69758;52.580;13.068;2023-08-17T08:32:50;7;6;
80413;PMS5003;69758;52.580;13.068;2023-08-17T08:35:15;6;6;
80413;PMS5003;69758;52.580;13.068;2023-08-17T08:37:40;5;5;
80413;PMS5003;69758;52.580;13.068;2023-08-17T08:40:06;6;6;
80413;PMS5003;69758;52.580;13.068;2023-08-17T08:42:30;7;7;
80413;PMS5003;69758;52.580;13.068;2023-08-17T08:44:55;5;5;
80413;PMS5003;69758;52.580;13.068;2023-08-17T08:47:20;8;8;
80413;PMS5003;69758;52.580;13.068;2023-08-17T08:49:49;6;6;
80413;PMS5003;69758;52.580;13.068;2023-08-17T08:52:17;7;7;
80413;PMS5003;69758;52.580;13.068;2023-08-17T08:54:35;7;7;
80413;PMS5003;69758;52.580;13.068;2023-08-17T08:57:01;6;6;
80413;PMS5003;69758;52.580;13.068;2023-08-17T08:59:26;6;6;
80413;PMS5003;69758;52.580;13.068;2023-08-17T09:01:51;5;5;
80413;PMS5003;69758;52.580;13.068;2023-08-17T09:04:16;6;6;
80413;PMS5003;69758;52.580;13.068;2023-08-17T09:06:41;6;5;
80413;PMS5003;69758;52.580;13.068;2023-08-17T09:09:06;6;6;
80413;PMS5003;69758;52.580;13.068;2023-08-17T09:11:31;6;5;
80413;PMS5003;69758;52.580;13.068;2023-08-17T09:13:56;7;7;
80413;PMS5003;69758;52.580;13.068;2023-08-17T09:16:21;7;6;
80413;PMS5003;69758;52.580;13.068;2023-08-17T09:18:46;7;7;
80413;PMS5003;69758;52.580;13.068;2023-08-17T09:23:38;6;6;
80413;PMS5003;69758;52.580;13.068;2023-08-17T09:26:05;5;5;
80413;PMS5003;69758;52.580;13.068;2023-08-17T09:28:26;8;7;
80413;PMS5003;69758;52.580;13.068;2023-08-17T09:30:52;5;5;
80413;PMS5003;69758;52.580;13.068;2023-08-17T09:33:16;7;7;
80413;PMS5003;69758;52.580;13.068;2023-08-17T09:35:41;5;5;
80413;PMS5003;69758;52.580;13.068;2023-08-17T09:38:06;4;4;
80413;PMS5003;69758;52.580;13.068;2023-08-17T09:40:31;7;7;
80413;PMS5003;69758;52.580;13.068;2023-08-17T09:42:56;8;8;
80413;PMS5003;69758;52.580;13.068;2023-08-17T09:45:21;7;7;
80413;PMS5003;69758;52.580;13.068;2023-08-17T09:47:46;8;8;
80413;PMS5003;69758;52.580;13.068;2023-08-17T09:50:11;7;7;
80413;PMS5003;69758;52.580;13.068;2023-08-17T09:52:38;6;6;
80413;PMS5003;69758;52.580;13.068;2023-08-17T09:55:02;7;7;
80413;PMS5003;69758;52.580;13.068;2023-08-17T09:57:27;7;7;
80413;PMS5003;69758;52.580;13.068;2023-08-17T09:59:52;6;6;
80413;PMS5003;69758;52.580;13.068;2023-08-17T10:02:18;8;8;
80413;PMS5003;69758;52.580;13.068;2023-08-17T10:04:42;8;8;
80413;PMS5003;69758;52.580;13.068;2023-08-17T10:07:07;8;8;
80413;PMS5003;69758;52.580;13.068;2023-08-17T10:09:38;7;7;
80413;PMS5003;69758;52.580;13.068;2023-08-17T10:11:57;9;9;
80413;PMS5003;69758;52.580;13.068;2023-08-17T10:14:23;11;10;
80413;PMS5003;69758;52.580;13.068;2023-08-17T10:16:49;20;19;
80413;PMS5003;69758;52.580;13.068;2023-08-17T10:19:16;11;10;
80413;PMS5003;69758;52.580;13.068;2023-08-17T10:21:39;10;9;
80413;PMS5003;69758;52.580;13.068;2023-08-17T10:24:03;8;8;
80413;PMS5003;69758;52.580;13.068;2023-08-17T10:26:28;12;12;
80413;PMS5003;69758;52.580;13.068;2023-08-17T10:28:53;13;11;
80413;PMS5003;69758;52.580;13.068;2023-08-17T10:31:18;8;8;
80413;PMS5003;69758;52.580;13.068;2023-08-17T10:33:43;7;7;
80413;PMS5003;69758;52.580;13.068;2023-08-17T10:36:08;8;8;
80413;PMS5003;69758;52.580;13.068;2023-08-17T10:38:33;8;8;
80413;PMS5003;69758;52.580;13.068;2023-08-17T10:41:08;8;8;
80413;PMS5003;69758;52.580;13.068;2023-08-17T10:45:50;12;11;
80413;PMS5003;69758;52.580;13.068;2023-08-17T10:48:25;9;9;
80413;PMS5003;69758;52.580;13.068;2023-08-17T10:50:43;9;8;
80413;PMS5003;69758;52.580;13.068;2023-08-17T10:53:08;11;11;
80413;PMS5003;69758;52.580;13.068;2023-08-17T10:55:35;8;8;
80413;PMS5003;69758;52.580;13.068;2023-08-17T10:57:59;7;7;
80413;PMS5003;69758;52.580;13.068;2023-08-17T11:00:25;9;9;
80413;PMS5003;69758;52.580;13.068;2023-08-17T11:02:53;9;9;
80413;PMS5003;69758;52.580;13.068;2023-08-17T11:05:21;12;11;
80413;PMS5003;69758;52.580;13.068;2023-08-17T11:07:43;9;9;
80413;PMS5003;69758;52.580;13.068;2023-08-17T11:10:10;11;11;
80413;PMS5003;69758;52.580;13.068;2023-08-17T11:12:35;8;8;
80413;PMS5003;69758;52.580;13.068;2023-08-17T11:15:00;13;12;
80413;PMS5003;69758;52.580;13.068;2023-08-17T11:17:26;8;8;
80413;PMS5003;69758;52.580;13.068;2023-08-17T11:19:52;10;10;
80413;PMS5003;69758;52.580;13.068;2023-08-17T11:22:18;11;10;
80413;PMS5003;69758;52.580;13.068;2023-08-17T11:24:44;9;9;
80413;PMS5003;69758;52.580;13.068;2023-08-17T11:27:09;12;10;
80413;PMS5003;69758;52.580;13.068;2023-08-17T11:29:35;9;9;
80413;PMS5003;69758;52.580;13.068;2023-08-17T11:32:02;10;9;
80413;PMS5003;69758;52.580;13.068;2023-08-17T11:34:27;11;10;
80413;PMS5003;69758;52.580;13.068;2023-08-17T11:36:53;11;10;
80413;PMS5003;69758;52.580;13.068;2023-08-17T11:39:19;7;7;
80413;PMS5003;69758;52.580;13.068;2023-08-17T11:41:44;10;10;
80413;PMS5003;69758;52.580;13.068;2023-08-17T11:44:10;8;8;
80413;PMS5003;69758;52.580;13.068;2023-08-17T11:46:36;9;9;
80413;PMS5003;69758;52.580;13.068;2023-08-17T11:49:02;11;11;
80413;PMS5003;69758;52.580;13.068;2023-08-17T11:51:28;12;12;
80413;PMS5003;69758;52.580;13.068;2023-08-17T11:53:54;12;12;
80413;PMS5003;69758;52.580;13.068;2023-08-17T11:56:19;9;9;
80413;PMS5003;69758;52.580;13.068;2023-08-17T11:58:46;9;9;
80413;PMS5003;69758;52.580;13.068;2023-08-17T12:01:11;10;10;
80413;PMS5003;69758;52.580;13.068;2023-08-17T12:03:37;11;11;
80413;PMS5003;69758;52.580;13.068;2023-08-17T12:06:03;11;11;
80413;PMS5003;69758;52.580;13.068;2023-08-17T12:08:29;10;10;
80413;PMS5003;69758;52.580;13.068;2023-08-17T12:10:54;10;9;
80413;PMS5003;69758;52.580;13.068;2023-08-17T12:13:20;10;10;
80413;PMS5003;69758;52.580;13.068;2023-08-17T12:15:46;12;12;
80413;PMS5003;69758;52.580;13.068;2023-08-17T12:18:12;11;11;
80413;PMS5003;69758;52.580;13.068;2023-08-17T12:20:37;11;11;
80413;PMS5003;69758;52.580;13.068;2023-08-17T12:23:04;11;11;
80413;PMS5003;69758;52.580;13.068;2023-08-17T12:25:29;12;11;
80413;PMS5003;69758;52.580;13.068;2023-08-17T12:27:57;12;12;
80413;PMS5003;69758;52.580;13.068;2023-08-17T12:30:24;11;11;
80413;PMS5003;69758;52.580;13.068;2023-08-17T12:32:46;12;12;
80413;PMS5003;69758;52.580;13.068;2023-08-17T12:35:12;10;10;
80413;PMS5003;69758;52.580;13.068;2023-08-17T12:37:38;13;13;
80413;PMS5003;69758;52.580;13.068;2023-08-17T12:40:04;12;12;
80413;PMS5003;69758;52.580;13.068;2023-08-17T12:42:29;13;12;
80413;PMS5003;69758;52.580;13.068;2023-08-17T12:44:55;13;13;
80413;PMS5003;69758;52.580;13.068;2023-08-17T12:47:21;10;10;
80413;PMS5003;69758;52.580;13.068;2023-08-17T12:49:47;10;10;
80413;PMS5003;69758;52.580;13.068;2023-08-17T12:52:13;12;12;
80413;PMS5003;69758;52.580;13.068;2023-08-17T12:54:39;10;10;
80413;PMS5003;69758;52.580;13.068;2023-08-17T12:57:04;13;13;
80413;PMS5003;69758;52.580;13.068;2023-08-17T12:59:29;11;11;
80413;PMS5003;69758;52.580;13.068;2023-08-17T13:01:55;15;15;
80413;PMS5003;69758;52.580;13.068;2023-08-17T13:04:21;13;12;
80413;PMS5003;69758;52.580;13.068;2023-08-17T13:06:46;11;10;
80413;PMS5003;69758;52.580;13.068;2023-08-17T13:09:12;15;15;
80413;PMS5003;69758;52.580;13.068;2023-08-17T13:11:38;13;13;
80413;PMS5003;69758;52.580;13.068;2023-08-17T13:14:04;12;12;
80413;PMS5003;69758;52.580;13.068;2023-08-17T13:16:30;13;12;
80413;PMS5003;69758;52.580;13.068;2023-08-17T13:18:55;11;11;
80413;PMS5003;69758;52.580;13.068;2023-08-17T13:21:21;14;14;
80413;PMS5003;69758;52.580;13.068;2023-08-17T13:23:47;13;13;
80413;PMS5003;69758;52.580;13.068;2023-08-17T13:26:13;13;13;
80413;PMS5003;69758;52.580;13.068;2023-08-17T13:28:39;11;11;
80413;PMS5003;69758;52.580;13.068;2023-08-17T13:31:04;11;11;
80413;PMS5003;69758;52.580;13.068;2023-08-17T13:33:30;14;14;
80413;PMS5003;69758;52.580;13.068;2023-08-17T13:35:56;19;18;
80413;PMS5003;69758;52.580;13.068;2023-08-17T13:38:22;14;14;
80413;PMS5003;69758;52.580;13.068;2023-08-17T13:40:47;23;23;
80413;PMS5003;69758;52.580;13.068;2023-08-17T13:43:13;13;13;
80413;PMS5003;69758;52.580;13.068;2023-08-17T13:45:39;11;11;
80413;PMS5003;69758;52.580;13.068;2023-08-17T13:48:05;11;11;
80413;PMS5003;69758;52.580;13.068;2023-08-17T13:50:30;17;16;
80413;PMS5003;69758;52.580;13.068;2023-08-17T13:52:55;12;12;
80413;PMS5003;69758;52.580;13.068;2023-08-17T13:55:21;12;12;
80413;PMS5003;69758;52.580;13.068;2023-08-17T13:57:47;16;16;
80413;PMS5003;69758;52.580;13.068;2023-08-17T14:00:13;16;15;
80413;PMS5003;69758;52.580;13.068;2023-08-17T14:02:38;11;11;
80413;PMS5003;69758;52.580;13.068;2023-08-17T14:05:04;15;15;
80413;PMS5003;69758;52.580;13.068;2023-08-17T14:07:30;13;13;
80413;PMS5003;69758;52.580;13.068;2023-08-17T14:09:56;15;15;
80413;PMS5003;69758;52.580;13.068;2023-08-17T14:12:21;16;15;
80413;PMS5003;69758;52.580;13.068;2023-08-17T14:14:47;16;15;
80413;PMS5003;69758;52.580;13.068;2023-08-17T14:17:12;12;12;
80413;PMS5003;69758;52.580;13.068;2023-08-17T14:19:38;13;13;
80413;PMS5003;69758;52.580;13.068;2023-08-17T14:22:04;13;13;
80413;PMS5003;69758;52.580;13.068;2023-08-17T14:24:29;13;13;
80413;PMS5003;69758;52.580;13.068;2023-08-17T14:26:55;18;18;
80413;PMS5003;69758;52.580;13.068;2023-08-17T14:29:21;13;13;
80413;PMS5003;69758;52.580;13.068;2023-08-17T14:31:47;17;16;
80413;PMS5003;69758;52.580;13.068;2023-08-17T14:34:12;13;13;
80413;PMS5003;69758;52.580;13.068;2023-08-17T14:36:38;13;12;
80413;PMS5003;69758;52.580;13.068;2023-08-17T14:39:04;12;12;
80413;PMS5003;69758;52.580;13.068;2023-08-17T14:41:30;15;15;
80413;PMS5003;69758;52.580;13.068;2023-08-17T14:43:55;10;10;
80413;PMS5003;69758;52.580;13.068;2023-08-17T14:46:21;13;13;
80413;PMS5003;69758;52.580;13.068;2023-08-17T14:48:47;17;16;
80413;PMS5003;69758;52.580;13.068;2023-08-17T14:51:12;13;12;
80413;PMS5003;69758;52.580;13.068;2023-08-17T14:53:38;11;11;
80413;PMS5003;69758;52.580;13.068;2023-08-17T14:56:04;11;11;
80413;PMS5003;69758;52.580;13.068;2023-08-17T14:58:29;12;12;
80413;PMS5003;69758;52.580;13.068;2023-08-17T15:00:55;11;11;
80413;PMS5003;69758;52.580;13.068;2023-08-17T15:03:21;12;12;
80413;PMS5003;69758;52.580;13.068;2023-08-17T15:05:47;13;13;
80413;PMS5003;69758;52.580;13.068;2023-08-17T15:08:12;13;13;
80413;PMS5003;69758;52.580;13.068;2023-08-17T15:10:38;17;16;
80413;PMS5003;69758;52.580;13.068;2023-08-17T15:13:03;12;12;
80413;PMS5003;69758;52.580;13.068;2023-08-17T15:15:29;30;30;
80413;PMS5003;69758;52.580;13.068;2023-08-17T15:17:54;14;14;
80413;PMS5003;69758;52.580;13.068;2023-08-17T15:20:20;13;13;
80413;PMS5003;69758;52.580;13.068;2023-08-17T15:22:45;26;26;
80413;PMS5003;69758;52.580;13.068;2023-08-17T15:25:11;17;17;
80413;PMS5003;69758;52.580;13.068;2023-08-17T15:27:36;19;19;
80413;PMS5003;69758;52.580;13.068;2023-08-17T15:30:02;13;13;
80413;PMS5003;69758;52.580;13.068;2023-08-17T15:32:27;12;11;
80413;PMS5003;69758;52.580;13.068;2023-08-17T15:34:53;11;11;
80413;PMS5003;69758;52.580;13.068;2023-08-17T15:37:19;9;9;
80413;PMS5003;69758;52.580;13.068;2023-08-17T15:39:45;10;10;
80413;PMS5003;69758;52.580;13.068;2023-08-17T15:42:11;12;12;
80413;PMS5003;69758;52.580;13.068;2023-08-17T15:44:36;10;10;
80413;PMS5003;69758;52.580;13.068;2023-08-17T15:47:02;10;10;
80413;PMS5003;69758;52.580;13.068;2023-08-17T15:49:28;12;11;
80413;PMS5003;69758;52.580;13.068;2023-08-17T15:51:54;10;10;
80413;PMS5003;69758;52.580;13.068;2023-08-17T15:54:19;11;11;
80413;PMS5003;69758;52.580;13.068;2023-08-17T15:56:45;11;11;
80413;PMS5003;69758;52.580;13.068;2023-08-17T15:59:11;10;10;
80413;PMS5003;69758;52.580;13.068;2023-08-17T16:01:36;10;10;
80413;PMS5003;69758;52.580;13.068;2023-08-17T16:04:02;10;10;
80413;PMS5003;69758;52.580;13.068;2023-08-17T16:06:28;11;10;
80413;PMS5003;69758;52.580;13.068;2023-08-17T16:08:53;10;10;
80413;PMS5003;69758;52.580;13.068;2023-08-17T16:11:19;11;11;
80413;PMS5003;69758;52.580;13.068;2023-08-17T16:13:45;10;10;
80413;PMS5003;69758;52.580;13.068;2023-08-17T16:16:11;10;10;